Shamal Skanor — SIBN — position and weather

sailwx.info

Track history (hours):
 
Tides and Currents Weather Stations Pressure Air Temp Water Temp Dewpoint Dewpoint Depression Visibility Wind Speed Wind Dir Waves Ship Positions

Shamal Skanor

Last reported at 2014-Jul-23 10:30 UTC. Time now 2014-Jul-24 10:41 UTC.
Position N 55°26' E 012°48'.

Length 15 m.

Type: Pleasure craft. MMSI: 265684130.

Date/timePositionNaut miles runAvg speedWind from/ knotsBaromVisibWave heightAir tempDewpointWater temp
2014-Jul-23 10:30N 55°26' E 012°48'4 4.6
2014-Jul-23 09:33N 55°29' E 012°44'5 4.9
2014-Jul-23 08:34N 55°34' E 012°42'2 0.1
2014-Jul-22 19:05N 55°36' E 012°41'0 0.0
2014-Jul-22 18:32N 55°36' E 012°41'0 0.0
2014-Jul-22 17:29N 55°36' E 012°41'0 0.0
2014-Jul-22 16:32N 55°36' E 012°41'0 0.0
2014-Jul-22 15:32N 55°36' E 012°41'0 0.0
2014-Jul-22 14:32N 55°36' E 012°41'0 0.0
2014-Jul-22 13:32N 55°36' E 012°41'0 0.0
2014-Jul-22 12:32N 55°36' E 012°41'2 1.6
2014-Jul-22 11:33N 55°34' E 012°41'5 4.9
2014-Jul-22 10:33N 55°30' E 012°45'5 3.7
2014-Jul-22 09:13N 55°25' E 012°49'0 0.0
2014-Jul-20 15:28N 55°25' E 012°50'0 0.0
2014-Jul-20 14:28N 55°25' E 012°50'51 1.0
2014-Jul-18 10:33N 54°40' E 013°30'10 0.5
2014-Jul-17 13:30N 54°31' E 013°38'5 5.5
2014-Jul-17 12:33N 54°26' E 013°42'6 5.3
2014-Jul-17 11:30N 54°21' E 013°46'7 5.9
2014-Jul-17 10:22N 54°15' E 013°42'4 4.0
2014-Jul-17 09:29N 54°17' E 013°37'4 4.5
2014-Jul-17 08:33N 54°20' E 013°34'2 0.2
2014-Jul-16 20:32N 54°21' E 013°30'0 0.0
2014-Jul-16 19:29N 54°21' E 013°30'0 0.0
2014-Jul-16 18:32N 54°21' E 013°30'0 0.0
2014-Jul-16 17:29N 54°21' E 013°30'0 0.0
2014-Jul-16 16:29N 54°21' E 013°30'0 0.0
2014-Jul-16 15:32N 54°21' E 013°30'0 0.0
2014-Jul-16 14:32N 54°21' E 013°30'0 0.0
2014-Jul-16 13:23N 54°21' E 013°30'0 0.0
2014-Jul-16 12:26N 54°21' E 013°30'0 0.0
2014-Jul-16 11:23N 54°21' E 013°30'0 0.0
2014-Jul-16 10:32N 54°21' E 013°30'0 0.0
2014-Jul-15 20:32N 54°21' E 013°30'0 0.0
2014-Jul-15 19:32N 54°21' E 013°30'0 0.0
2014-Jul-15 18:32N 54°21' E 013°30'0 0.0
2014-Jul-15 17:32N 54°21' E 013°30'0 0.0
2014-Jul-15 16:32N 54°21' E 013°30'0 0.0
2014-Jul-15 15:29N 54°21' E 013°30'0 0.0
2014-Jul-15 14:32N 54°21' E 013°30'0 0.0
2014-Jul-15 13:26N 54°21' E 013°30'0 0.0
2014-Jul-15 12:32N 54°21' E 013°30'0 0.1
2014-Jul-15 11:33N 54°20' E 013°30'4 4.0
2014-Jul-15 10:33N 54°17' E 013°28'5 4.7
2014-Jul-15 09:34N 54°12' E 013°25'4 3.9
2014-Jul-15 08:34N 54°14' E 013°19'4 4.5
2014-Jul-15 07:33N 54°16' E 013°12'4 3.6
2014-Jul-15 06:33N 54°18' E 013°07'  
Track history (hours):
 
Tides and Currents Weather Stations Pressure Air Temp Water Temp Dewpoint Dewpoint Depression Visibility Wind Speed Wind Dir Waves Ship Positions

Shamal Skanor

Last reported at 2014-Jul-23 10:30 UTC. Time now 2014-Jul-24 10:41 UTC.
Position N 55°26' E 012°48'.

Length 15 m.

Type: Pleasure craft. MMSI: 265684130.

Date/timePositionNaut miles runAvg speedWind from/ knotsBaromVisibWave heightAir tempDewpointWater temp
2014-Jul-23 10:30N 55°26' E 012°48'4 4.6
2014-Jul-23 09:33N 55°29' E 012°44'5 4.9
2014-Jul-23 08:34N 55°34' E 012°42'2 0.1
2014-Jul-22 19:05N 55°36' E 012°41'0 0.0
2014-Jul-22 18:32N 55°36' E 012°41'0 0.0
2014-Jul-22 17:29N 55°36' E 012°41'0 0.0
2014-Jul-22 16:32N 55°36' E 012°41'0 0.0
2014-Jul-22 15:32N 55°36' E 012°41'0 0.0
2014-Jul-22 14:32N 55°36' E 012°41'0 0.0
2014-Jul-22 13:32N 55°36' E 012°41'0 0.0
2014-Jul-22 12:32N 55°36' E 012°41'2 1.6
2014-Jul-22 11:33N 55°34' E 012°41'5 4.9
2014-Jul-22 10:33N 55°30' E 012°45'5 3.7
2014-Jul-22 09:13N 55°25' E 012°49'0 0.0
2014-Jul-20 15:28N 55°25' E 012°50'0 0.0
2014-Jul-20 14:28N 55°25' E 012°50'51 1.0
2014-Jul-18 10:33N 54°40' E 013°30'10 0.5
2014-Jul-17 13:30N 54°31' E 013°38'5 5.5
2014-Jul-17 12:33N 54°26' E 013°42'6 5.3
2014-Jul-17 11:30N 54°21' E 013°46'7 5.9
2014-Jul-17 10:22N 54°15' E 013°42'4 4.0
2014-Jul-17 09:29N 54°17' E 013°37'4 4.5
2014-Jul-17 08:33N 54°20' E 013°34'2 0.2
2014-Jul-16 20:32N 54°21' E 013°30'0 0.0
2014-Jul-16 19:29N 54°21' E 013°30'0 0.0
2014-Jul-16 18:32N 54°21' E 013°30'0 0.0
2014-Jul-16 17:29N 54°21' E 013°30'0 0.0
2014-Jul-16 16:29N 54°21' E 013°30'0 0.0
2014-Jul-16 15:32N 54°21' E 013°30'0 0.0
2014-Jul-16 14:32N 54°21' E 013°30'0 0.0
2014-Jul-16 13:23N 54°21' E 013°30'0 0.0
2014-Jul-16 12:26N 54°21' E 013°30'0 0.0
2014-Jul-16 11:23N 54°21' E 013°30'0 0.0
2014-Jul-16 10:32N 54°21' E 013°30'0 0.0
2014-Jul-15 20:32N 54°21' E 013°30'0 0.0
2014-Jul-15 19:32N 54°21' E 013°30'0 0.0
2014-Jul-15 18:32N 54°21' E 013°30'0 0.0
2014-Jul-15 17:32N 54°21' E 013°30'0 0.0
2014-Jul-15 16:32N 54°21' E 013°30'0 0.0
2014-Jul-15 15:29N 54°21' E 013°30'0 0.0
2014-Jul-15 14:32N 54°21' E 013°30'0 0.0
2014-Jul-15 13:26N 54°21' E 013°30'0 0.0
2014-Jul-15 12:32N 54°21' E 013°30'0 0.1
2014-Jul-15 11:33N 54°20' E 013°30'4 4.0
2014-Jul-15 10:33N 54°17' E 013°28'5 4.7
2014-Jul-15 09:34N 54°12' E 013°25'4 3.9
2014-Jul-15 08:34N 54°14' E 013°19'4 4.5
2014-Jul-15 07:33N 54°16' E 013°12'4 3.6
2014-Jul-15 06:33N 54°18' E 013°07'  

Dump ship's entire track history